Time;durP1;ratioP1;P1;durP2;ratioP2;P2;SDS_P1;SDS_P2;PMS_P1;PMS_P2;Temp;Humidity;BMP_temperature;BMP_pressure;BME280_temperature;BME280_humidity;BME280_pressure;Samples;Min_cycle;Max_cycle;Signal;HPM_P1;HPM_P2
2024/02/17 00:00:48;;;;;;;29.23;16.20;;;;;;;3.86;92.16;100338.44;5097363;28;20100;-68
2024/02/17 00:03:17;;;;;;;28.25;15.40;;;;;;;4.08;91.80;100341.03;5111528;28;20023;-68
2024/02/17 00:05:42;;;;;;;27.35;15.80;;;;;;;4.16;90.88;100355.47;5092457;28;20035;-68
2024/02/17 00:08:08;;;;;;;23.45;13.35;;;;;;;4.31;90.53;100344.44;5111678;28;20081;-67
2024/02/17 00:10:33;;;;;;;22.38;13.95;;;;;;;3.92;89.90;100342.09;5084871;28;20027;-68
2024/02/17 00:12:59;;;;;;;21.63;14.10;;;;;;;3.56;92.75;100352.94;5092042;28;20020;-68
2024/02/17 00:15:24;;;;;;;24.25;14.70;;;;;;;3.45;94.22;100358.41;5097498;28;20051;-67
2024/02/17 00:17:50;;;;;;;23.27;14.48;;;;;;;3.25;96.12;100349.94;5091125;28;20082;-68
2024/02/17 00:20:17;;;;;;;30.17;15.38;;;;;;;3.32;96.26;100358.84;5098659;28;20023;-67
2024/02/17 00:22:43;;;;;;;30.50;15.07;;;;;;;3.07;97.90;100354.78;5101269;28;20051;-68
2024/02/17 00:25:08;;;;;;;29.42;15.90;;;;;;;3.37;97.79;100359.72;5103995;28;20110;-68
2024/02/17 00:27:34;;;;;;;26.45;14.88;;;;;;;3.58;95.13;100348.81;5111262;28;20473;-68
2024/02/17 00:29:59;;;;;;;27.92;15.07;;;;;;;3.73;93.83;100356.34;5111188;28;20035;-67
2024/02/17 00:32:25;;;;;;;28.10;15.18;;;;;;;3.60;93.94;100359.59;5091398;28;20031;-70
2024/02/17 00:34:50;;;;;;;28.30;14.98;;;;;;;3.70;94.39;100356.91;5072722;28;20031;-67
2024/02/17 00:37:16;;;;;;;27.80;16.42;;;;;;;3.94;93.44;100353.72;5072569;28;20032;-67
2024/02/17 00:39:41;;;;;;;30.73;14.35;;;;;;;3.73;93.53;100353.59;5092450;28;20495;-67
2024/02/17 00:42:07;;;;;;;26.85;14.25;;;;;;;3.83;93.81;100358.38;5110993;28;20085;-67
2024/02/17 00:44:34;;;;;;;25.17;15.50;;;;;;;3.56;94.43;100372.31;5109439;28;20039;-67
2024/02/17 00:47:00;;;;;;;25.48;14.15;;;;;;;3.54;95.40;100366.22;5091492;28;20616;-67
2024/02/17 00:49:25;;;;;;;25.65;14.77;;;;;;;3.75;94.95;100362.47;5106528;28;20035;-67
2024/02/17 00:51:50;;;;;;;30.67;15.82;;;;;;;3.84;93.06;100356.41;5092371;28;20563;-67
2024/02/17 00:54:16;;;;;;;29.52;15.23;;;;;;;3.93;91.58;100355.66;5110899;28;20085;-68
2024/02/17 00:56:41;;;;;;;31.88;15.60;;;;;;;3.85;90.46;100358.09;5110616;28;20058;-67
2024/02/17 00:59:07;;;;;;;24.90;13.60;;;;;;;3.42;91.73;100364.47;5110787;28;20023;-67
2024/02/17 01:01:32;;;;;;;19.80;12.00;;;;;;;3.37;92.35;100361.66;5090536;28;20031;-67
2024/02/17 01:03:58;;;;;;;24.75;13.70;;;;;;;3.47;92.42;100367.25;5092339;28;20027;-67
2024/02/17 01:06:24;;;;;;;24.02;13.85;;;;;;;3.41;92.59;100364.72;5110063;28;20073;-67
2024/02/17 01:08:49;;;;;;;23.13;14.68;;;;;;;3.49;93.86;100364.25;5110657;28;20474;-67
2024/02/17 01:11:16;;;;;;;27.80;13.65;;;;;;;3.22;95.42;100371.50;5092160;28;20512;-67
2024/02/17 01:13:41;;;;;;;25.80;15.20;;;;;;;3.37;95.52;100370.78;5105664;28;20056;-67
2024/02/17 01:16:07;;;;;;;28.38;14.95;;;;;;;3.00;97.19;100359.69;5090259;28;20121;-67
2024/02/17 01:18:33;;;;;;;23.90;14.13;;;;;;;2.97;97.25;100361.06;5090225;28;20103;-67
2024/02/17 01:20:58;;;;;;;22.20;14.45;;;;;;;3.04;96.15;100366.38;5097619;28;20112;-67
2024/02/17 01:23:24;;;;;;;28.52;14.75;;;;;;;2.74;97.45;100356.69;5090182;28;20126;-67
2024/02/17 01:25:50;;;;;;;25.90;14.25;;;;;;;2.93;96.85;100363.50;5089858;28;20028;-67
2024/02/17 01:28:15;;;;;;;26.10;14.48;;;;;;;3.12;96.20;100367.81;5108906;28;20043;-67
2024/02/17 01:30:41;;;;;;;25.85;14.93;;;;;;;3.21;95.21;100358.75;5110285;28;20023;-67
2024/02/17 01:33:06;;;;;;;24.67;13.57;;;;;;;3.40;93.72;100361.13;5110218;28;20023;-67
2024/02/17 01:35:32;;;;;;;25.98;14.95;;;;;;;3.50;92.79;100352.91;5110413;28;20035;-67
2024/02/17 01:38:00;;;;;;;27.35;15.75;;;;;;;2.97;94.14;100361.06;5091947;28;20095;-67
2024/02/17 01:40:25;;;;;;;28.88;16.75;;;;;;;2.65;96.65;100348.88;5089990;28;20119;-68
2024/02/17 01:42:50;;;;;;;34.78;17.48;;;;;;;2.53;98.78;100354.53;5090113;28;20109;-67
2024/02/17 01:45:16;;;;;;;29.88;15.35;;;;;;;2.42;100.00;100346.41;5089268;28;20028;-67
2024/02/17 01:47:42;;;;;;;53.70;17.55;;;;;;;2.15;100.00;100344.41;5090539;28;20468;-67
2024/02/17 01:50:08;;;;;;;34.47;18.40;;;;;;;2.10;100.00;100340.50;5077938;28;20019;-68
2024/02/17 01:52:34;;;;;;;34.58;19.50;;;;;;;1.94;100.00;100350.53;5110002;28;20123;-67
2024/02/17 01:55:01;;;;;;;37.17;19.85;;;;;;;1.95;100.00;100345.84;5105654;28;20107;-67
2024/02/17 01:57:26;;;;;;;34.53;20.05;;;;;;;1.93;100.00;100336.97;5099055;28;20112;-67
2024/02/17 01:59:54;;;;;;;40.05;21.45;;;;;;;1.91;100.00;100336.41;5109947;28;20020;-67
2024/02/17 02:02:20;;;;;;;36.67;19.10;;;;;;;1.88;100.00;100332.25;5091601;28;20032;-68
2024/02/17 02:04:46;;;;;;;35.38;17.90;;;;;;;1.82;100.00;100336.84;5098228;28;20036;-67
2024/02/17 02:07:12;;;;;;;34.55;18.92;;;;;;;1.82;100.00;100341.53;5089609;28;20032;-67
2024/02/17 02:09:37;;;;;;;35.67;20.67;;;;;;;1.64;100.00;100337.13;5092374;28;20413;-67
2024/02/17 02:12:03;;;;;;;34.83;19.10;;;;;;;1.58;100.00;100340.94;5091410;28;20023;-67
2024/02/17 02:14:30;;;;;;;40.55;18.70;;;;;;;1.54;100.00;100341.41;5108381;28;20031;-67
2024/02/17 02:16:55;;;;;;;33.20;18.35;;;;;;;1.60;100.00;100342.31;5091432;28;20028;-67
2024/02/17 02:19:21;;;;;;;37.05;19.85;;;;;;;1.63;100.00;100344.59;5086949;28;20024;-68
2024/02/17 02:21:46;;;;;;;31.55;17.80;;;;;;;2.03;100.00;100342.63;5091540;28;20027;-67
2024/02/17 02:24:12;;;;;;;31.50;17.30;;;;;;;2.23;100.00;100343.97;5102995;28;20495;-67
2024/02/17 02:26:37;;;;;;;31.33;18.33;;;;;;;2.34;100.00;100344.91;5091844;28;20032;-67
2024/02/17 02:29:03;;;;;;;34.40;19.98;;;;;;;2.34;100.00;100348.53;5103860;28;20446;-67
2024/02/17 02:31:29;;;;;;;34.83;19.30;;;;;;;2.31;99.18;100351.81;5089442;28;20459;-67
2024/02/17 02:33:55;;;;;;;33.53;17.77;;;;;;;2.03;100.00;100350.09;5076116;28;20484;-67
2024/02/17 02:36:20;;;;;;;33.05;19.02;;;;;;;2.06;100.00;100347.66;5103011;28;20027;-67
2024/02/17 02:38:47;;;;;;;38.35;20.25;;;;;;;1.96;100.00;100351.09;5074446;28;20112;-67
2024/02/17 02:41:13;;;;;;;41.03;19.60;;;;;;;1.61;100.00;100351.44;5074528;28;20416;-67
2024/02/17 02:43:39;;;;;;;33.63;18.92;;;;;;;1.37;100.00;100354.41;5074767;28;20035;-67
2024/02/17 02:46:05;;;;;;;38.97;19.52;;;;;;;1.24;100.00;100350.06;5092976;28;20024;-67
2024/02/17 02:48:31;;;;;;;36.28;19.75;;;;;;;1.10;100.00;100347.63;5092588;28;20562;-67
2024/02/17 02:50:57;;;;;;;37.88;19.33;;;;;;;1.00;100.00;100343.88;5092431;28;20495;-67
2024/02/17 02:53:23;;;;;;;29.88;16.75;;;;;;;1.38;100.00;100353.31;5092513;28;20420;-68
2024/02/17 02:55:48;;;;;;;35.17;17.80;;;;;;;1.23;100.00;100354.75;5094115;28;20028;-67
2024/02/17 02:58:14;;;;;;;36.80;18.52;;;;;;;1.39;100.00;100343.94;5112533;28;20019;-68
2024/02/17 03:00:39;;;;;;;33.10;19.23;;;;;;;1.39;100.00;100349.47;5093703;28;20051;-68
2024/02/17 03:03:05;;;;;;;35.78;17.95;;;;;;;1.53;100.00;100344.44;5074457;28;20028;-68
2024/02/17 03:05:31;;;;;;;37.60;18.63;;;;;;;1.48;100.00;100347.09;5109689;28;20047;-68
2024/02/17 03:07:57;;;;;;;32.83;17.42;;;;;;;1.15;100.00;100355.16;5112664;28;20030;-68
2024/02/17 03:10:23;;;;;;;33.15;17.35;;;;;;;1.00;100.00;100364.00;5093152;28;20039;-67
2024/02/17 03:12:48;;;;;;;29.90;17.90;;;;;;;0.81;100.00;100360.63;5112748;28;20019;-67
2024/02/17 03:15:14;;;;;;;33.53;19.30;;;;;;;0.63;100.00;100368.03;5110910;28;20028;-67
2024/02/17 03:17:39;;;;;;;37.38;19.30;;;;;;;0.53;100.00;100363.16;5112596;28;20031;-67
2024/02/17 03:20:05;;;;;;;35.50;18.90;;;;;;;0.51;100.00;100362.56;5102560;28;20038;-67
2024/02/17 03:22:32;;;;;;;39.90;19.92;;;;;;;0.41;100.00;100368.72;5111865;28;20027;-67
2024/02/17 03:24:57;;;;;;;44.70;21.02;;;;;;;0.26;100.00;100372.00;5099057;28;20032;-67
2024/02/17 03:27:23;;;;;;;33.88;19.38;;;;;;;0.31;100.00;100362.19;5108232;28;20035;-67
2024/02/17 03:29:49;;;;;;;60.25;27.23;;;;;;;0.75;100.00;100367.97;5100039;28;20028;-67
2024/02/17 03:32:14;;;;;;;89.35;34.05;;;;;;;1.09;100.00;100369.94;5073640;28;20020;-67
2024/02/17 03:34:40;;;;;;;45.72;21.33;;;;;;;1.28;100.00;100370.53;5102098;28;20043;-67
2024/02/17 03:37:06;;;;;;;33.05;18.45;;;;;;;1.39;100.00;100371.53;5112246;28;20092;-67
2024/02/17 03:39:33;;;;;;;33.22;17.02;;;;;;;1.48;100.00;100366.41;5101808;28;20400;-68
2024/02/17 03:41:59;;;;;;;33.28;20.67;;;;;;;1.62;100.00;100372.41;5086384;28;20032;-67
2024/02/17 03:44:24;;;;;;;32.80;16.52;;;;;;;1.63;100.00;100374.09;5091782;28;20105;-67
2024/02/17 03:46:50;;;;;;;28.95;15.52;;;;;;;1.76;100.00;100372.91;5091092;28;20032;-67
2024/02/17 03:49:20;;;;;;;28.75;17.40;;;;;;;1.92;100.00;100365.66;5098694;28;20034;-67
2024/02/17 03:51:45;;;;;;;33.58;20.20;;;;;;;1.42;100.00;100367.44;5110523;28;20548;-67
2024/02/17 03:54:11;;;;;;;40.40;24.58;;;;;;;1.31;100.00;100375.53;5104693;28;20049;-67
2024/02/17 03:56:37;;;;;;;34.72;21.98;;;;;;;1.37;100.00;100371.75;5073221;28;20071;-67
2024/02/17 03:59:03;;;;;;;32.22;20.38;;;;;;;1.33;100.00;100370.59;5091171;28;20492;-67
2024/02/17 04:01:34;;;;;;;36.83;21.33;;;;;;;1.31;100.00;100378.28;5110212;28;20030;-68
2024/02/17 04:04:03;;;;;;;35.10;20.08;;;;;;;1.14;100.00;100375.53;5092673;28;20499;-67
2024/02/17 04:06:29;;;;;;;31.08;17.05;;;;;;;0.90;100.00;100367.41;5111748;28;20023;-67
2024/02/17 04:08:54;;;;;;;31.92;16.02;;;;;;;0.95;100.00;100373.00;5106557;28;20023;-68
2024/02/17 04:11:19;;;;;;;36.28;19.88;;;;;;;1.08;100.00;100371.00;5091535;28;20028;-67
2024/02/17 04:13:45;;;;;;;46.78;23.88;;;;;;;0.60;100.00;100364.94;5093287;28;20034;-67
2024/02/17 04:16:10;;;;;;;43.55;22.95;;;;;;;0.52;100.00;100377.19;5111113;28;20528;-67
2024/02/17 04:18:36;;;;;;;43.40;21.35;;;;;;;0.53;100.00;100370.59;5090954;28;20019;-68
2024/02/17 04:21:03;;;;;;;39.72;21.23;;;;;;;0.36;100.00;100371.38;5104244;28;20027;-67
2024/02/17 04:23:30;;;;;;;33.88;16.58;;;;;;;-0.04;100.00;100374.94;5109757;28;20091;-67
2024/02/17 04:25:57;;;;;;;27.55;16.10;;;;;;;-0.20;100.00;100374.63;5072686;28;20019;-67
2024/02/17 04:28:23;;;;;;;31.50;16.80;;;;;;;-0.35;100.00;100377.03;5090511;28;20381;-67
2024/02/17 04:30:48;;;;;;;33.28;18.35;;;;;;;-0.52;100.00;100372.22;5072759;28;20024;-67
2024/02/17 04:33:14;;;;;;;35.10;18.50;;;;;;;-0.45;100.00;100372.09;5090876;28;20063;-67
2024/02/17 04:35:39;;;;;;;37.15;17.35;;;;;;;-0.49;100.00;100382.75;5109645;28;20108;-67
2024/02/17 04:38:05;;;;;;;31.50;17.08;;;;;;;-0.53;100.00;100376.06;5110564;28;20484;-67
2024/02/17 04:40:30;;;;;;;32.95;18.05;;;;;;;-0.35;100.00;100377.84;5092467;28;20028;-67
2024/02/17 04:42:56;;;;;;;37.42;18.23;;;;;;;-0.44;100.00;100377.38;5090930;28;20097;-67
2024/02/17 04:45:23;;;;;;;30.58;16.65;;;;;;;-0.41;100.00;100384.31;5106290;28;20035;-67
2024/02/17 04:47:49;;;;;;;28.65;17.05;;;;;;;-0.18;100.00;100383.47;5091459;28;20024;-67
2024/02/17 04:50:14;;;;;;;31.65;17.02;;;;;;;-0.22;100.00;100384.19;5082173;28;20088;-67
2024/02/17 04:52:43;;;;;;;34.92;19.48;;;;;;;-0.01;100.00;100379.94;5092012;28;20066;-67
2024/02/17 04:55:09;;;;;;;34.50;18.67;;;;;;;0.00;100.00;100378.91;5088570;28;20515;-67
2024/02/17 04:57:34;;;;;;;35.85;17.25;;;;;;;-0.03;100.00;100384.88;5089948;28;20044;-67
2024/02/17 05:00:00;;;;;;;33.95;18.60;;;;;;;-0.08;100.00;100380.09;5089690;28;20028;-67
2024/02/17 05:02:25;;;;;;;41.80;19.77;;;;;;;-0.14;100.00;100386.56;5090242;28;20020;-67
2024/02/17 05:04:51;;;;;;;58.00;32.00;;;;;;;-0.05;100.00;100376.03;5090042;28;20024;-67
2024/02/17 05:07:16;;;;;;;50.42;29.42;;;;;;;0.27;100.00;100384.66;5090254;28;20439;-67
2024/02/17 05:09:42;;;;;;;44.38;26.50;;;;;;;0.46;100.00;100389.16;5100496;28;20027;-67
2024/02/17 05:12:08;;;;;;;44.38;25.55;;;;;;;0.58;100.00;100367.91;5108981;28;20019;-67
2024/02/17 05:14:36;;;;;;;50.33;29.63;;;;;;;0.86;100.00;100385.53;5109575;28;20016;-67
2024/02/17 05:17:04;;;;;;;49.88;22.92;;;;;;;0.38;100.00;100391.25;5108739;28;20023;-68
2024/02/17 05:19:29;;;;;;;39.28;20.50;;;;;;;0.23;100.00;100388.16;5088077;28;20473;-67
2024/02/17 05:21:57;;;;;;;41.95;23.02;;;;;;;0.43;100.00;100397.91;5110242;28;20023;-67
2024/02/17 05:24:23;;;;;;;44.78;21.75;;;;;;;0.51;100.00;100394.78;5088042;28;20107;-67
2024/02/17 05:26:49;;;;;;;42.22;22.38;;;;;;;0.31;100.00;100393.28;5089897;28;20059;-67
2024/02/17 05:29:14;;;;;;;43.33;22.25;;;;;;;0.18;100.00;100401.81;5089609;28;20035;-67
2024/02/17 05:31:40;;;;;;;42.85;22.67;;;;;;;0.06;100.00;100401.81;5071698;28;20043;-67
2024/02/17 05:34:06;;;;;;;69.57;32.22;;;;;;;-0.04;100.00;100411.56;5081030;28;20020;-67
2024/02/17 05:36:31;;;;;;;77.57;39.65;;;;;;;-0.22;100.00;100414.44;5072527;28;20055;-67
2024/02/17 05:38:57;;;;;;;84.95;42.13;;;;;;;-0.49;100.00;100415.72;5094369;28;20038;-67
2024/02/17 05:41:23;;;;;;;82.40;44.33;;;;;;;-0.35;100.00;100416.34;5109523;28;20047;-67
2024/02/17 05:43:49;;;;;;;59.17;32.67;;;;;;;-0.35;100.00;100418.28;5074828;28;20065;-67
2024/02/17 05:46:14;;;;;;;52.47;27.65;;;;;;;-0.41;100.00;100417.31;5110078;28;20024;-67
2024/02/17 05:48:40;;;;;;;46.33;27.48;;;;;;;-0.44;100.00;100415.03;5107223;28;20428;-69
2024/02/17 05:51:05;;;;;;;42.95;22.80;;;;;;;-0.50;100.00;100425.06;5105177;28;20545;-69
2024/02/17 05:53:31;;;;;;;50.83;25.92;;;;;;;-0.52;100.00;100432.72;5108697;28;20103;-71
2024/02/17 05:55:56;;;;;;;35.92;18.60;;;;;;;-0.35;100.00;100424.59;5089481;28;20023;-68
2024/02/17 05:58:22;;;;;;;41.22;20.38;;;;;;;-0.24;100.00;100433.94;5095551;28;20094;-67
2024/02/17 06:00:48;;;;;;;37.55;21.73;;;;;;;-0.31;100.00;100433.22;5071958;28;20435;-70
2024/02/17 06:03:17;;;;;;;52.60;25.55;;;;;;;-0.35;100.00;100424.59;5089668;28;20028;-70
2024/02/17 06:05:44;;;;;;;40.65;21.73;;;;;;;-0.13;100.00;100436.91;5089437;28;20061;-70
2024/02/17 06:08:09;;;;;;;39.60;21.23;;;;;;;-0.14;100.00;100427.81;5089659;28;20071;-71
2024/02/17 06:10:35;;;;;;;43.45;21.23;;;;;;;0.15;100.00;100432.59;5106487;28;20492;-69
2024/02/17 06:13:00;;;;;;;54.63;23.23;;;;;;;0.38;100.00;100440.78;5113769;28;20122;-71
2024/02/17 06:15:26;;;;;;;40.40;19.73;;;;;;;0.51;100.00;100442.41;5096210;28;20040;-69
2024/02/17 06:21:10;;;;;;;39.53;21.25;;;;;;;0.83;100.00;100452.13;5093539;28;20458;-66
2024/02/17 06:23:25;;;;;;;43.42;24.77;;;;;;;0.86;100.00;100448.88;5112428;28;20050;-71
2024/02/17 06:25:53;;;;;;;43.25;21.60;;;;;;;1.21;100.00;100456.16;5076818;28;20044;-73
2024/02/17 06:28:19;;;;;;;39.45;21.88;;;;;;;1.48;100.00;100447.22;5092445;28;20090;-73
2024/02/17 06:30:45;;;;;;;51.78;24.38;;;;;;;1.70;100.00;100449.22;5068460;28;20069;-71
2024/02/17 06:33:10;;;;;;;46.80;28.08;;;;;;;1.66;100.00;100459.06;5069163;28;20069;-73
2024/02/17 06:35:36;;;;;;;51.47;26.52;;;;;;;1.38;100.00;100455.31;5107595;28;20028;-73
2024/02/17 06:38:04;;;;;;;43.08;25.00;;;;;;;1.30;100.00;100441.94;5107663;28;20039;-75
2024/02/17 06:40:29;;;;;;;45.38;25.58;;;;;;;1.53;100.00;100450.06;5073516;28;20028;-75
2024/02/17 06:42:56;;;;;;;104.60;62.15;;;;;;;1.59;100.00;100462.00;5078599;28;20034;-78
2024/02/17 06:45:21;;;;;;;59.03;30.67;;;;;;;1.51;100.00;100456.94;5093443;28;20129;-74
2024/02/17 06:47:50;;;;;;;51.80;26.00;;;;;;;1.25;100.00;100449.03;5111348;28;20067;-74
2024/02/17 06:50:16;;;;;;;48.75;24.65;;;;;;;1.39;100.00;100455.09;5087417;28;20047;-75
2024/02/17 06:52:42;;;;;;;44.67;25.08;;;;;;;1.85;100.00;100453.31;5111848;28;20051;-68
2024/02/17 06:55:10;;;;;;;48.22;24.48;;;;;;;1.65;100.00;100435.34;5093143;28;20031;-69
2024/02/17 06:57:37;;;;;;;41.67;24.20;;;;;;;1.91;100.00;100441.25;5093274;28;20504;-70
2024/02/17 07:00:03;;;;;;;40.45;24.25;;;;;;;1.57;100.00;100442.13;5096512;28;20032;-68
2024/02/17 07:02:30;;;;;;;65.35;31.77;;;;;;;1.59;100.00;100439.13;5092642;28;20110;-74
2024/02/17 07:04:55;;;;;;;59.72;30.10;;;;;;;1.53;100.00;100422.47;5091085;28;20041;-73
2024/02/17 07:07:23;;;;;;;114.93;42.88;;;;;;;1.88;100.00;100458.31;5110803;28;20051;-71
2024/02/17 07:09:48;;;;;;;135.43;47.50;;;;;;;1.92;100.00;100453.97;5099530;28;20471;-73
2024/02/17 07:12:14;;;;;;;73.10;33.50;;;;;;;1.85;100.00;100465.16;5077893;28;20031;-70
2024/02/17 07:14:39;;;;;;;65.07;30.70;;;;;;;2.09;100.00;100449.25;5109483;28;20031;-69
2024/02/17 07:17:05;;;;;;;51.53;25.02;;;;;;;2.32;100.00;100452.88;5093081;28;20035;-72
2024/02/17 07:19:31;;;;;;;53.00;27.05;;;;;;;2.37;100.00;100447.41;5097704;28;20036;-69
2024/02/17 07:21:56;;;;;;;41.90;20.33;;;;;;;2.71;100.00;100463.00;5090736;28;20028;-72
2024/02/17 07:24:22;;;;;;;43.15;21.02;;;;;;;2.99;100.00;100452.84;5099240;28;20084;-71
2024/02/17 07:26:50;;;;;;;46.95;22.80;;;;;;;2.95;100.00;100451.66;5102158;28;20027;-71
2024/02/17 07:29:16;;;;;;;33.22;18.27;;;;;;;2.75;100.00;100453.13;5107694;28;20019;-74
2024/02/17 07:31:42;;;;;;;38.45;22.50;;;;;;;3.01;100.00;100450.66;5096434;28;20020;-70
2024/02/17 07:34:08;;;;;;;31.92;19.27;;;;;;;3.30;100.00;100455.09;5094678;28;20458;-69
2024/02/17 07:36:34;;;;;;;35.78;18.38;;;;;;;3.40;100.00;100455.19;5105049;28;20027;-73
2024/02/17 07:39:00;;;;;;;29.83;17.58;;;;;;;3.41;100.00;100454.06;5088382;28;20239;-74
2024/02/17 07:41:26;;;;;;;31.77;18.10;;;;;;;3.73;100.00;100450.44;5085902;28;20027;-75
2024/02/17 07:43:52;;;;;;;36.20;18.30;;;;;;;3.90;100.00;100449.47;5085281;28;20479;-74
2024/02/17 07:46:19;;;;;;;34.10;18.40;;;;;;;3.90;100.00;100460.53;5096293;28;20576;-73
2024/02/17 07:48:45;;;;;;;34.25;18.33;;;;;;;4.18;100.00;100452.97;5105388;28;20035;-76
2024/02/17 07:51:12;;;;;;;33.55;19.00;;;;;;;4.35;100.00;100450.84;5108306;28;20123;-71
2024/02/17 07:53:37;;;;;;;31.85;16.98;;;;;;;4.54;100.00;100453.16;5107048;28;20396;-69
2024/02/17 07:56:04;;;;;;;26.45;16.85;;;;;;;4.80;100.00;100456.00;5091606;28;20068;-69
2024/02/17 07:58:29;;;;;;;26.58;17.27;;;;;;;5.09;100.00;100441.69;5091413;28;20439;-71
2024/02/17 08:00:55;;;;;;;38.15;16.02;;;;;;;5.31;99.05;100448.94;5094714;28;20031;-77
2024/02/17 08:03:20;;;;;;;31.50;16.40;;;;;;;5.41;98.11;100459.19;5082989;28;20042;-71
2024/02/17 08:05:46;;;;;;;31.42;18.52;;;;;;;5.78;97.39;100455.31;5096080;28;20027;-73
2024/02/17 08:08:11;;;;;;;184.13;27.30;;;;;;;5.81;96.33;100456.72;5102722;28;20503;-69
2024/02/17 08:10:37;;;;;;;42.65;18.10;;;;;;;5.78;95.26;100446.13;5083831;28;20496;-73
2024/02/17 08:13:02;;;;;;;28.38;16.38;;;;;;;5.92;96.11;100450.03;5083617;28;20073;-70
2024/02/17 08:15:28;;;;;;;25.50;16.48;;;;;;;6.21;94.27;100448.59;5093785;28;20028;-72
2024/02/17 08:17:53;;;;;;;26.13;15.90;;;;;;;6.51;92.71;100444.06;5102729;28;20031;-71
2024/02/17 08:20:19;;;;;;;64.45;19.63;;;;;;;6.47;94.19;100432.69;5091212;28;20047;-69
2024/02/17 08:22:44;;;;;;;36.40;20.25;;;;;;;6.91;92.40;100447.78;5105399;28;20027;-67
2024/02/17 08:25:10;;;;;;;36.67;17.27;;;;;;;6.72;92.85;100440.09;5089438;28;20038;-68
2024/02/17 08:27:36;;;;;;;36.28;18.20;;;;;;;6.99;91.12;100443.56;5088602;28;20487;-70
2024/02/17 08:30:10;;;;;;;35.28;16.63;;;;;;;7.11;89.76;100438.47;5084989;28;20031;-70
2024/02/17 08:33:21;;;;;;;77.28;18.88;;;;;;;7.51;89.08;100452.41;5109114;28;20040;-71
2024/02/17 08:35:55;;;;;;;26.95;17.10;;;;;;;7.06;89.05;100446.88;5096203;28;20044;-68
2024/02/17 08:38:23;;;;;;;30.90;17.00;;;;;;;7.80;88.25;100439.63;5107478;28;20054;-68
2024/02/17 08:40:49;;;;;;;26.55;16.95;;;;;;;8.06;86.26;100448.59;5096807;28;20119;-68
2024/02/17 08:43:51;;;;;;;27.92;16.58;;;;;;;7.35;87.20;100450.84;5086806;28;20115;-66
2024/02/17 08:46:23;;;;;;;25.88;16.48;;;;;;;7.33;86.93;100450.31;5085758;28;20036;-67
2024/02/17 08:48:49;;;;;;;28.85;16.30;;;;;;;7.95;84.41;100447.84;5092094;28;20030;-67
2024/02/17 08:51:15;;;;;;;25.95;15.70;;;;;;;8.37;83.79;100450.22;5110449;28;20100;-67
2024/02/17 08:53:41;;;;;;;26.15;16.05;;;;;;;8.42;82.37;100455.72;5083049;28;20484;-70
2024/02/17 08:56:14;;;;;;;28.10;16.08;;;;;;;8.39;81.59;100457.16;5107776;28;20126;-68
2024/02/17 08:58:44;;;;;;;26.98;15.73;;;;;;;8.40;82.50;100453.25;5098133;28;20059;-68
2024/02/17 09:01:13;;;;;;;26.65;15.55;;;;;;;8.76;81.20;100454.78;5091451;28;20043;-69
2024/02/17 09:03:44;;;;;;;32.60;18.20;;;;;;;9.14;78.95;100437.25;5071867;28;20512;-69
2024/02/17 09:06:10;;;;;;;22.60;15.05;;;;;;;8.74;79.20;100437.53;5110097;28;20503;-70
2024/02/17 09:08:36;;;;;;;131.50;73.25;;;;;;;9.23;79.69;100448.56;5090744;28;20051;-70
2024/02/17 09:11:02;;;;;;;38.47;20.50;;;;;;;9.29;77.71;100439.00;5078270;28;20043;-69
2024/02/17 09:13:27;;;;;;;21.92;14.27;;;;;;;9.51;77.31;100443.94;5090823;28;20032;-68
2024/02/17 09:15:53;;;;;;;34.85;15.43;;;;;;;9.22;78.58;100438.53;5103747;28;20032;-69
2024/02/17 09:18:18;;;;;;;20.02;14.70;;;;;;;9.29;77.75;100439.00;5103957;28;20031;-69
2024/02/17 09:20:44;;;;;;;34.80;24.42;;;;;;;9.97;77.50;100438.72;5091763;28;20034;-69
2024/02/17 09:23:09;;;;;;;22.17;14.18;;;;;;;10.04;75.25;100427.94;5103446;28;20031;-69
2024/02/17 09:25:35;;;;;;;25.50;14.57;;;;;;;10.31;75.04;100425.50;5086365;28;20038;-68
2024/02/17 09:28:01;;;;;;;23.85;15.50;;;;;;;10.59;74.54;100431.09;5105925;28;20035;-69
2024/02/17 09:30:26;;;;;;;19.67;13.10;;;;;;;10.64;71.42;100419.81;5095561;28;20023;-69
2024/02/17 09:32:52;;;;;;;23.17;13.38;;;;;;;9.94;73.09;100425.31;5092009;28;20024;-69
2024/02/17 09:35:18;;;;;;;22.50;13.75;;;;;;;10.36;72.01;100425.38;5091846;28;20042;-69
2024/02/17 09:37:44;;;;;;;25.05;13.15;;;;;;;10.47;71.96;100418.47;5110240;28;20084;-70
2024/02/17 09:40:14;;;;;;;40.30;14.73;;;;;;;10.86;71.47;100423.81;5086517;28;20032;-69
2024/02/17 09:42:39;;;;;;;;;;;;;;;11.18;69.00;100419.19;5110770;28;20508;-69
2024/02/17 09:45:05;;;;;;;20.58;11.50;;;;;;;11.44;66.68;100421.38;5107024;28;20308;-69
2024/02/17 09:47:33;;;;;;;14.57;10.88;;;;;;;11.60;65.21;100421.81;5102488;28;20060;-69
2024/02/17 09:49:59;;;;;;;24.80;11.48;;;;;;;11.48;66.17;100408.41;5094133;28;20458;-69
2024/02/17 09:52:27;;;;;;;19.52;11.45;;;;;;;11.40;67.48;100409.16;5095335;28;20019;-69
2024/02/17 09:54:54;;;;;;;19.17;11.52;;;;;;;11.59;66.59;100411.75;5094396;28;20032;-69
2024/02/17 09:57:19;;;;;;;43.80;16.80;;;;;;;11.94;65.66;100401.59;5114248;28;20055;-69
2024/02/17 09:59:45;;;;;;;18.23;12.35;;;;;;;11.98;66.39;100393.34;5102146;28;20047;-69
2024/02/17 10:02:11;;;;;;;21.13;12.13;;;;;;;10.77;68.44;100396.59;5092235;28;20038;-69
2024/02/17 10:04:53;;;;;;;16.38;11.65;;;;;;;10.67;70.04;100394.00;5085800;28;20061;-69
2024/02/17 10:07:19;;;;;;;16.85;11.40;;;;;;;10.51;70.44;100387.91;5095899;28;20114;-69
2024/02/17 10:09:46;;;;;;;20.60;11.85;;;;;;;10.79;69.45;100383.09;5095253;28;20126;-70
2024/02/17 10:12:13;;;;;;;23.67;14.82;;;;;;;11.29;69.23;100383.38;5095940;28;20122;-69
2024/02/17 10:14:39;;;;;;;23.77;15.95;;;;;;;11.71;68.16;100377.56;5107191;28;20110;-70
2024/02/17 10:17:07;;;;;;;28.60;12.07;;;;;;;12.15;66.66;100375.81;5095670;28;20073;-70
2024/02/17 10:19:33;;;;;;;19.65;10.90;;;;;;;12.44;64.68;100371.66;5083019;28;20460;-69
2024/02/17 10:21:59;;;;;;;20.40;11.63;;;;;;;12.62;64.39;100369.72;5093552;28;20031;-70
2024/02/17 10:24:25;;;;;;;20.73;12.23;;;;;;;12.53;65.95;100370.81;5112767;28;20028;-70
2024/02/17 10:26:52;;;;;;;16.83;11.50;;;;;;;12.50;65.73;100366.72;5096093;28;20030;-70
2024/02/17 10:29:18;;;;;;;14.80;10.50;;;;;;;12.69;64.25;100358.00;5091639;28;20061;-70
2024/02/17 10:31:46;;;;;;;18.38;11.10;;;;;;;12.60;62.45;100360.75;5094064;28;20099;-69
2024/02/17 10:34:12;;;;;;;14.38;9.60;;;;;;;12.49;62.57;100353.84;5095201;28;20131;-70
2024/02/17 10:36:38;;;;;;;16.30;9.23;;;;;;;12.72;61.82;100351.72;5114236;28;20106;-70
2024/02/17 10:39:06;;;;;;;14.00;8.38;;;;;;;12.86;60.82;100350.75;5106758;28;20789;-70
2024/02/17 10:41:34;;;;;;;10.45;8.38;;;;;;;13.02;59.75;100339.84;5105525;28;20027;-70
2024/02/17 10:44:00;;;;;;;16.30;8.75;;;;;;;12.93;59.71;100356.69;5079826;28;20085;-69
2024/02/17 10:46:27;;;;;;;11.80;8.80;;;;;;;13.17;59.20;100344.97;5085916;28;20119;-69
2024/02/17 10:49:19;;;;;;;11.00;8.27;;;;;;;13.39;58.21;100340.31;5111065;28;20085;-69
2024/02/17 10:51:58;;;;;;;17.40;10.00;;;;;;;13.26;58.39;100336.50;5099662;28;20035;-69
2024/02/17 10:54:54;;;;;;;11.70;8.82;;;;;;;13.58;56.59;100334.34;5091833;28;20119;-69
2024/02/17 10:57:22;;;;;;;16.02;9.32;;;;;;;13.52;58.52;100332.91;5061328;28;20055;-71
2024/02/17 10:59:54;;;;;;;13.13;9.30;;;;;;;13.61;57.23;100335.69;5073701;28;20016;-68
2024/02/17 11:02:25;;;;;;;50.08;33.25;;;;;;;13.60;56.95;100332.03;5112743;28;20400;-70
2024/02/17 11:04:51;;;;;;;14.32;10.27;;;;;;;13.51;59.08;100328.41;5108777;28;20038;-69
2024/02/17 11:07:17;;;;;;;15.48;9.93;;;;;;;13.57;57.93;100329.91;5103727;28;20028;-68
2024/02/17 11:09:45;;;;;;;13.95;7.40;;;;;;;13.70;56.80;100327.22;5095344;28;20023;-70
2024/02/17 11:12:26;;;;;;;18.10;9.13;;;;;;;13.63;56.32;100330.53;5109550;28;20112;-69